createdAt,value
2022-09-03T00:00:06.731Z,87.01
2022-09-03T00:02:45.902Z,86.91
2022-09-03T00:05:24.217Z,87.01
2022-09-03T00:08:05.086Z,87.18
2022-09-03T00:10:45.136Z,87.07
2022-09-03T00:13:24.829Z,87.26
2022-09-03T00:15:56.338Z,87.31
2022-09-03T00:18:33.724Z,87.26
2022-09-03T00:21:09.463Z,87.23
2022-09-03T00:23:43.646Z,87.20
2022-09-03T00:26:26.709Z,87.57
2022-09-03T00:29:03.792Z,87.26
2022-09-03T00:31:39.033Z,87.22
2022-09-03T00:34:18.035Z,87.12
2022-09-03T00:36:47.511Z,87.24
2022-09-03T00:39:19.665Z,87.19
2022-09-03T00:42:08.176Z,87.08
2022-09-03T00:45:10.140Z,87.08
2022-09-03T00:47:58.829Z,87.24
2022-09-03T00:50:46.516Z,87.35
2022-09-03T00:53:29.393Z,87.30
2022-09-03T00:56:09.592Z,87.24
2022-09-03T00:58:58.411Z,87.42
2022-09-03T01:01:37.643Z,87.25
2022-09-03T01:04:28.852Z,87.31
2022-09-03T01:07:10.435Z,87.26
2022-09-03T01:09:54.982Z,87.30
2022-09-03T01:12:41.191Z,87.51
2022-09-03T01:15:18.488Z,87.72
2022-09-03T01:18:09.509Z,87.90
2022-09-03T01:20:58.787Z,87.94
2022-09-03T01:24:07.473Z,87.71
2022-09-03T01:27:03.578Z,87.76
2022-09-03T01:29:45.879Z,87.71
2022-09-03T01:32:25.072Z,87.65
2022-09-03T01:35:02.980Z,87.60
2022-09-03T01:37:48.584Z,87.35
2022-09-03T01:40:29.435Z,87.29
2022-09-03T01:43:18.828Z,87.41
2022-09-03T01:46:00.535Z,87.46
2022-09-03T01:48:47.212Z,87.25
2022-09-03T01:51:25.290Z,87.29
2022-09-03T01:54:21.461Z,87.46
2022-09-03T01:57:35.325Z,87.45
2022-09-03T02:00:13.472Z,87.67
2022-09-03T02:02:48.195Z,87.66
2022-09-03T02:05:20.738Z,87.71
2022-09-03T02:07:53.161Z,87.85
2022-09-03T02:10:30.106Z,87.95
2022-09-03T02:13:06.227Z,87.98
2022-09-03T02:15:39.114Z,87.93
2022-09-03T02:18:16.452Z,87.86
2022-09-03T02:20:47.964Z,87.70
2022-09-03T02:23:17.964Z,87.50
2022-09-03T02:25:58.359Z,87.44
2022-09-03T02:28:29.262Z,87.59
2022-09-03T02:30:58.471Z,87.48
2022-09-03T02:33:29.464Z,87.39
2022-09-03T02:35:58.515Z,87.37
2022-09-03T02:38:28.518Z,87.51
2022-09-03T02:40:57.359Z,87.57
2022-09-03T02:43:35.675Z,87.37
2022-09-03T02:46:10.328Z,87.42
2022-09-03T02:48:40.547Z,87.27
2022-09-03T02:51:13.733Z,87.19
2022-09-03T02:53:44.205Z,87.17
2022-09-03T02:56:13.915Z,87.37
2022-09-03T02:58:42.645Z,87.45
2022-09-03T03:01:12.792Z,87.54
2022-09-03T03:03:52.126Z,87.29
2022-09-03T03:06:21.883Z,87.25
2022-09-03T03:08:51.666Z,87.08
2022-09-03T03:11:22.077Z,86.90
2022-09-03T03:13:50.766Z,87.14
2022-09-03T03:16:20.258Z,87.24
2022-09-03T03:18:49.161Z,87.23
2022-09-03T03:21:20.520Z,87.11
2022-09-03T03:23:49.281Z,87.05
2022-09-03T03:26:20.758Z,87.05
2022-09-03T03:28:57.089Z,86.90
2022-09-03T03:31:27.205Z,86.87
2022-09-03T03:33:58.903Z,86.96
2022-09-03T03:36:35.109Z,86.94
2022-09-03T03:39:04.244Z,86.91
2022-09-03T03:41:35.219Z,86.82
2022-09-03T03:44:07.291Z,86.76
2022-09-03T03:46:38.149Z,86.69
2022-09-03T03:49:07.669Z,86.67
2022-09-03T03:51:39.169Z,86.71
2022-09-03T03:54:08.354Z,86.71
2022-09-03T03:56:37.513Z,86.58
2022-09-03T03:59:06.737Z,86.45
2022-09-03T04:01:35.502Z,86.54
2022-09-03T04:04:05.760Z,86.50
2022-09-03T04:06:34.514Z,86.47
2022-09-03T04:09:04.800Z,86.27
2022-09-03T04:11:33.651Z,86.19
2022-09-03T04:14:04.723Z,86.25
2022-09-03T04:16:34.139Z,86.20
2022-09-03T04:19:02.921Z,85.76
2022-09-03T04:21:32.821Z,85.58
2022-09-03T04:24:01.453Z,85.51
2022-09-03T04:26:34.266Z,85.49
2022-09-03T04:29:07.204Z,85.31
2022-09-03T04:31:37.866Z,85.03
2022-09-03T04:34:07.294Z,84.96
2022-09-03T04:36:37.556Z,84.89
2022-09-03T04:39:06.365Z,84.91
2022-09-03T04:41:37.176Z,84.89
2022-09-03T04:44:05.845Z,84.74
2022-09-03T04:46:34.564Z,84.92
2022-09-03T04:49:03.987Z,84.98
2022-09-03T04:51:33.133Z,85.04
2022-09-03T04:54:03.743Z,85.20
2022-09-03T04:56:36.732Z,85.21
2022-09-03T04:59:08.221Z,85.10
2022-09-03T05:01:40.137Z,85.08
2022-09-03T05:04:10.161Z,85.01
2022-09-03T05:06:39.303Z,85.00
2022-09-03T05:09:08.466Z,84.95
2022-09-03T05:11:38.833Z,84.56
2022-09-03T05:14:11.847Z,84.58
2022-09-03T05:16:41.071Z,84.52
2022-09-03T05:19:10.980Z,84.51
2022-09-03T05:21:39.990Z,84.46
2022-09-03T05:24:08.892Z,84.50
2022-09-03T05:26:41.520Z,84.36
2022-09-03T05:29:10.402Z,84.24
2022-09-03T05:31:40.991Z,84.19
2022-09-03T05:34:16.688Z,84.30
2022-09-03T05:36:49.967Z,84.54
2022-09-03T05:39:18.733Z,84.54
2022-09-03T05:41:51.860Z,84.33
2022-09-03T05:44:21.565Z,84.40
2022-09-03T05:46:51.710Z,84.40
2022-09-03T05:49:20.651Z,83.82
2022-09-03T05:51:49.499Z,83.80
2022-09-03T05:54:20.752Z,83.81
2022-09-03T05:56:51.592Z,83.69
2022-09-03T05:59:20.619Z,83.83
2022-09-03T06:01:52.244Z,83.81
2022-09-03T06:04:24.851Z,83.76
2022-09-03T06:06:53.856Z,83.46
2022-09-03T06:09:23.991Z,83.44
2022-09-03T06:11:57.162Z,83.06
2022-09-03T06:14:26.257Z,82.88
2022-09-03T06:16:56.595Z,82.64
2022-09-03T06:19:25.464Z,82.48
2022-09-03T06:21:55.505Z,81.02
2022-09-03T06:24:27.855Z,80.80
2022-09-03T06:26:58.807Z,81.05
2022-09-03T06:29:27.785Z,81.02
2022-09-03T06:31:57.349Z,79.95
2022-09-03T06:34:27.299Z,79.59
2022-09-03T06:36:56.105Z,78.72
2022-09-03T06:39:25.900Z,78.78
2022-09-03T06:41:55.189Z,79.26
2022-09-03T06:44:34.615Z,78.68
2022-09-03T06:47:03.396Z,78.37
2022-09-03T06:49:32.279Z,78.45
2022-09-03T06:52:01.156Z,77.82
2022-09-03T06:54:29.873Z,77.61
2022-09-03T06:56:59.226Z,77.80
2022-09-03T06:59:28.601Z,77.83
2022-09-03T07:02:00.902Z,77.34
2022-09-03T07:04:29.652Z,77.19
2022-09-03T07:06:58.371Z,76.92
2022-09-03T07:09:27.168Z,77.09
2022-09-03T07:11:56.662Z,76.17
2022-09-03T07:14:25.858Z,75.83
2022-09-03T07:16:56.092Z,75.71
2022-09-03T07:19:27.009Z,75.21
2022-09-03T07:21:55.710Z,74.60
2022-09-03T07:24:24.361Z,73.01
2022-09-03T07:26:53.103Z,71.83
2022-09-03T07:29:22.395Z,71.73
2022-09-03T07:31:53.284Z,69.89
2022-09-03T07:34:27.198Z,70.42
2022-09-03T07:36:57.299Z,71.04
2022-09-03T07:39:26.090Z,68.85
2022-09-03T07:41:55.051Z,68.81
2022-09-03T07:44:24.491Z,69.18
2022-09-03T07:46:53.459Z,68.55
2022-09-03T07:49:23.098Z,68.65
2022-09-03T07:51:54.709Z,68.97
2022-09-03T07:54:27.468Z,67.88
2022-09-03T07:56:56.985Z,67.32
2022-09-03T07:59:26.407Z,68.08
2022-09-03T08:01:55.378Z,68.14
2022-09-03T08:04:24.167Z,68.68
2022-09-03T08:06:55.853Z,68.72
2022-09-03T08:09:26.261Z,69.21
2022-09-03T08:11:55.033Z,68.81
2022-09-03T08:14:23.744Z,70.42
2022-09-03T08:16:52.807Z,71.13
2022-09-03T08:19:22.681Z,71.32
2022-09-03T08:21:51.402Z,71.38
2022-09-03T08:24:24.773Z,72.33
2022-09-03T08:26:54.895Z,72.88
2022-09-03T08:29:23.696Z,73.09
2022-09-03T08:31:52.822Z,73.33
2022-09-03T08:34:21.755Z,72.86
2022-09-03T08:36:50.622Z,72.48
2022-09-03T08:39:19.814Z,71.80
2022-09-03T08:42:30.127Z,71.85
2022-09-03T08:45:02.726Z,71.47
2022-09-03T08:47:46.033Z,71.71
2022-09-03T08:50:26.886Z,71.35
2022-09-03T08:53:10.075Z,71.35
2022-09-03T08:55:49.246Z,71.20
2022-09-03T08:58:23.996Z,71.09
2022-09-03T09:01:02.804Z,71.26
2022-09-03T09:03:54.842Z,71.59
2022-09-03T09:06:37.316Z,72.02
2022-09-03T09:09:26.056Z,71.47
2022-09-03T09:12:10.148Z,70.74
2022-09-03T09:14:52.414Z,70.66
2022-09-03T09:17:47.365Z,70.74
2022-09-03T09:20:30.818Z,66.84
2022-09-03T09:23:06.564Z,65.66
2022-09-03T09:25:45.834Z,65.05
2022-09-03T09:28:20.995Z,65.64
2022-09-03T09:30:54.647Z,65.79
2022-09-03T09:33:25.579Z,66.10
2022-09-03T09:35:54.227Z,66.68
2022-09-03T09:38:31.669Z,67.55
2022-09-03T09:41:11.949Z,69.04
2022-09-03T09:43:41.326Z,71.94
2022-09-03T09:46:16.570Z,72.65
2022-09-03T09:48:52.190Z,73.41
2022-09-03T09:51:24.181Z,74.12
2022-09-03T09:54:04.857Z,74.12
2022-09-03T09:56:33.812Z,73.92
2022-09-03T09:59:07.986Z,73.97
2022-09-03T10:01:41.915Z,73.78
2022-09-03T10:04:13.590Z,73.14
2022-09-03T10:06:57.470Z,71.55
2022-09-03T10:09:32.342Z,70.72
2022-09-03T10:12:19.903Z,70.75
2022-09-03T10:14:58.729Z,70.94
2022-09-03T10:17:43.938Z,71.12
2022-09-03T10:20:31.487Z,70.79
2022-09-03T10:23:15.908Z,70.24
2022-09-03T10:26:07.684Z,70.17
2022-09-03T10:28:41.605Z,70.42
2022-09-03T10:31:46.964Z,70.12
2022-09-03T10:34:31.323Z,69.28
2022-09-03T10:37:16.092Z,68.63
2022-09-03T10:40:03.726Z,68.87
2022-09-03T10:42:46.807Z,68.51
2022-09-03T10:45:24.726Z,68.02
2022-09-03T10:48:27.749Z,67.83
2022-09-03T10:51:05.830Z,68.03
2022-09-03T10:54:03.313Z,68.47
2022-09-03T10:56:41.996Z,68.38
2022-09-03T10:59:36.699Z,69.07
2022-09-03T11:02:30.885Z,69.49
2022-09-03T11:05:07.750Z,69.72
2022-09-03T11:07:46.211Z,69.52
2022-09-03T11:10:25.039Z,69.01
2022-09-03T11:13:10.641Z,68.82
2022-09-03T11:15:45.067Z,69.41
2022-09-03T11:18:25.778Z,69.78
2022-09-03T11:21:07.757Z,70.24
2022-09-03T11:23:45.391Z,70.47
2022-09-03T11:26:18.765Z,70.97
2022-09-03T11:28:59.096Z,70.43
2022-09-03T11:31:48.324Z,71.19
2022-09-03T11:34:33.435Z,74.48
2022-09-03T11:37:20.702Z,74.56
2022-09-03T11:40:06.158Z,74.17
2022-09-03T11:42:39.350Z,74.57
2022-09-03T11:45:37.533Z,72.43
2022-09-03T11:48:37.540Z,71.25
2022-09-03T11:51:19.346Z,70.64
2022-09-03T11:53:57.598Z,68.91
2022-09-03T11:56:28.264Z,69.79
2022-09-03T11:59:21.134Z,70.30
2022-09-03T12:01:54.786Z,69.12
2022-09-03T12:04:33.653Z,68.70
2022-09-03T12:07:45.763Z,69.48
2022-09-03T12:10:33.301Z,69.47
2022-09-03T12:13:20.144Z,69.81
2022-09-03T12:16:20.561Z,69.51
2022-09-03T12:18:53.230Z,70.16
2022-09-03T12:21:23.242Z,70.01
2022-09-03T12:23:58.507Z,69.16
2022-09-03T12:26:29.005Z,68.63
2022-09-03T12:29:01.374Z,69.66
2022-09-03T12:31:33.102Z,69.65
2022-09-03T12:34:09.122Z,67.96
2022-09-03T12:36:42.062Z,67.46
2022-09-03T12:39:13.165Z,66.74
2022-09-03T12:42:03.873Z,66.59
2022-09-03T12:44:41.288Z,67.86
2022-09-03T12:50:11.178Z,71.10
2022-09-03T12:52:45.628Z,75.63
2022-09-03T12:55:29.721Z,76.60
2022-09-03T12:58:12.856Z,75.21
2022-09-03T13:00:50.062Z,76.07
2022-09-03T13:03:31.147Z,76.44
2022-09-03T13:06:04.714Z,77.40
2022-09-03T13:08:38.531Z,77.06
2022-09-03T13:11:08.688Z,76.89
2022-09-03T13:13:40.739Z,77.14
2022-09-03T13:16:56.181Z,77.67
2022-09-03T13:19:42.355Z,78.03
2022-09-03T13:22:25.296Z,77.43
2022-09-03T13:25:15.261Z,77.53
2022-09-03T13:28:00.072Z,77.30
2022-09-03T13:30:38.659Z,77.49
2022-09-03T13:33:20.028Z,77.48
2022-09-03T13:35:56.476Z,76.98
2022-09-03T13:38:37.113Z,77.71
2022-09-03T13:41:19.790Z,76.63
2022-09-03T13:43:59.695Z,75.47
2022-09-03T13:46:37.196Z,74.88
2022-09-03T13:49:38.184Z,73.29
2022-09-03T13:52:23.295Z,71.52
2022-09-03T13:55:00.452Z,70.55
2022-09-03T13:57:38.221Z,70.50
2022-09-03T14:00:10.360Z,70.01
2022-09-03T14:02:53.922Z,69.61
2022-09-03T14:05:43.116Z,67.84
2022-09-03T14:08:25.212Z,67.55
2022-09-03T14:11:08.738Z,66.53
2022-09-03T14:14:01.710Z,67.32
2022-09-03T14:16:40.733Z,67.80
2022-09-03T14:19:18.615Z,67.63
2022-09-03T14:21:56.229Z,67.17
2022-09-03T14:24:32.500Z,67.84
2022-09-03T14:27:04.715Z,68.78
2022-09-03T14:29:35.819Z,68.76
2022-09-03T14:32:25.418Z,69.27
2022-09-03T14:35:27.365Z,68.39
2022-09-03T14:38:32.140Z,67.54
2022-09-03T14:41:08.252Z,68.32
2022-09-03T14:44:32.941Z,69.25
2022-09-03T14:47:20.082Z,69.79
2022-09-03T14:50:04.341Z,69.31
2022-09-03T14:53:01.623Z,68.16
2022-09-03T14:55:52.522Z,67.19
2022-09-03T14:58:39.859Z,67.13
2022-09-03T15:01:15.766Z,66.46
2022-09-03T15:04:31.369Z,66.54
2022-09-03T15:07:23.200Z,66.22
2022-09-03T15:10:05.232Z,65.82
2022-09-03T15:12:42.590Z,65.50
2022-09-03T15:15:21.954Z,65.54
2022-09-03T15:18:04.843Z,65.74
2022-09-03T15:20:52.036Z,65.02
2022-09-03T15:23:49.870Z,65.11
2022-09-03T15:26:55.627Z,64.98
2022-09-03T15:29:39.598Z,64.91
2022-09-03T15:32:25.532Z,64.64
2022-09-03T15:35:10.924Z,63.84
2022-09-03T15:37:48.689Z,63.22
2022-09-03T15:40:32.637Z,60.73
2022-09-03T15:43:10.251Z,61.05
2022-09-03T15:45:57.701Z,60.71
2022-09-03T15:48:40.337Z,60.58
2022-09-03T15:51:21.626Z,61.01
2022-09-03T15:53:57.190Z,60.26
2022-09-03T15:56:37.096Z,59.79
2022-09-03T15:59:16.067Z,59.58
2022-09-03T16:01:54.241Z,59.60
2022-09-03T16:04:42.514Z,59.46
2022-09-03T16:07:26.206Z,59.27
2022-09-03T16:10:28.234Z,59.77
2022-09-03T16:13:07.174Z,59.82
2022-09-03T16:15:44.795Z,59.99
2022-09-03T16:18:30.300Z,60.48
2022-09-03T16:21:07.426Z,61.41
2022-09-03T16:23:48.770Z,62.40
2022-09-03T16:26:26.770Z,64.13
2022-09-03T16:29:01.070Z,65.20
2022-09-03T16:31:59.784Z,67.15
2022-09-03T16:34:47.191Z,68.41
2022-09-03T16:37:30.408Z,69.61
2022-09-03T16:40:16.355Z,70.79
2022-09-03T16:42:55.500Z,72.01
2022-09-03T16:45:41.534Z,72.99
2022-09-03T16:48:31.911Z,73.97
2022-09-03T16:51:29.107Z,74.28
2022-09-03T16:54:19.994Z,74.69
2022-09-03T16:57:04.001Z,75.01
2022-09-03T17:00:11.024Z,75.64
2022-09-03T17:03:05.414Z,76.35
2022-09-03T17:06:30.144Z,76.73
2022-09-03T17:09:16.122Z,76.97
2022-09-03T17:12:04.512Z,77.48
2022-09-03T17:15:22.284Z,77.80
2022-09-03T17:18:27.036Z,78.13
2022-09-03T17:21:22.471Z,78.33
2022-09-03T17:24:18.959Z,78.50
2022-09-03T17:27:07.612Z,78.62
2022-09-03T17:30:09.369Z,78.75
2022-09-03T17:33:35.397Z,78.95
2022-09-03T17:36:27.607Z,78.85
2022-09-03T17:39:56.228Z,79.08
2022-09-03T17:42:44.821Z,79.03
2022-09-03T17:45:34.438Z,79.17
2022-09-03T17:48:37.202Z,79.33
2022-09-03T17:51:14.421Z,79.45
2022-09-03T17:54:18.465Z,79.70
2022-09-03T17:57:04.397Z,80.03
2022-09-03T17:59:57.675Z,80.05
2022-09-03T18:02:37.288Z,80.29
2022-09-03T18:05:24.477Z,80.34
2022-09-03T18:08:09.057Z,80.40
2022-09-03T18:10:50.708Z,80.31
2022-09-03T18:13:46.268Z,80.42
2022-09-03T18:16:30.988Z,80.56
2022-09-03T18:19:14.086Z,80.49
2022-09-03T18:22:11.523Z,80.74
2022-09-03T18:25:15.256Z,80.88
2022-09-03T18:28:10.686Z,81.00
2022-09-03T18:30:59.488Z,81.25
2022-09-03T18:33:46.625Z,81.09
2022-09-03T18:36:38.084Z,81.24
2022-09-03T18:39:39.962Z,81.42
2022-09-03T18:43:09.234Z,81.48
2022-09-03T18:47:16.420Z,81.57
2022-09-03T18:49:29.916Z,81.73
2022-09-03T18:52:30.609Z,81.89
2022-09-03T18:55:29.883Z,81.97
2022-09-03T18:58:33.296Z,81.84
2022-09-03T19:01:30.463Z,82.09
2022-09-03T19:04:34.760Z,82.26
2022-09-03T19:07:29.763Z,82.42
2022-09-03T19:10:27.468Z,82.39
2022-09-03T19:13:41.491Z,82.53
2022-09-03T19:16:39.560Z,82.60
2022-09-03T19:19:57.921Z,82.75
2022-09-03T19:22:52.332Z,82.65
2022-09-03T19:25:41.143Z,82.87
2022-09-03T19:28:34.611Z,82.89
2022-09-03T19:32:00.079Z,82.58
2022-09-03T19:35:09.462Z,82.67
2022-09-03T19:38:12.126Z,82.61
2022-09-03T19:41:41.680Z,82.70
2022-09-03T19:44:51.263Z,82.81
2022-09-03T19:47:58.266Z,83.20
2022-09-03T19:50:56.329Z,83.38
2022-09-03T19:53:44.733Z,83.70
2022-09-03T19:56:47.990Z,83.78
2022-09-03T19:59:54.387Z,83.77
2022-09-03T20:02:50.998Z,83.73
2022-09-03T20:05:42.886Z,83.76
2022-09-03T20:08:38.674Z,83.72
2022-09-03T20:11:13.658Z,83.81
2022-09-03T20:14:19.906Z,83.61
2022-09-03T20:17:06.726Z,83.86
2022-09-03T20:19:56.072Z,83.96
2022-09-03T20:22:40.522Z,84.08
2022-09-03T20:25:49.458Z,84.14
2022-09-03T20:28:45.751Z,84.17
2022-09-03T20:31:25.530Z,84.23
2022-09-03T20:34:24.759Z,84.37
2022-09-03T20:37:13.953Z,84.37
2022-09-03T20:40:02.378Z,84.31
2022-09-03T20:43:07.509Z,84.57
2022-09-03T20:46:03.182Z,84.49
2022-09-03T20:48:46.098Z,84.47
2022-09-03T20:51:22.029Z,84.66
2022-09-03T20:54:12.347Z,84.65
2022-09-03T20:57:10.820Z,84.69
2022-09-03T21:00:01.952Z,84.58
2022-09-03T21:03:16.072Z,84.70
2022-09-03T21:06:04.471Z,84.75
2022-09-03T21:09:02.119Z,84.72
2022-09-03T21:11:40.824Z,84.73
2022-09-03T21:14:29.237Z,84.61
2022-09-03T21:17:21.413Z,84.71
2022-09-03T21:20:10.589Z,84.99
2022-09-03T21:22:59.431Z,84.98
2022-09-03T21:25:36.571Z,85.03
2022-09-03T21:28:14.176Z,85.12
2022-09-03T21:30:49.882Z,85.05
2022-09-03T21:33:27.578Z,84.91
2022-09-03T21:36:07.263Z,84.97
2022-09-03T21:38:39.452Z,85.07
2022-09-03T21:41:23.164Z,85.13
2022-09-03T21:43:59.633Z,85.22
2022-09-03T21:46:36.059Z,85.12
2022-09-03T21:49:11.181Z,85.32
2022-09-03T21:51:49.202Z,85.44
2022-09-03T21:54:26.139Z,85.43
2022-09-03T21:57:14.982Z,85.36
2022-09-03T22:00:14.330Z,85.52
2022-09-03T22:02:43.522Z,85.59
2022-09-03T22:05:12.298Z,85.70
2022-09-03T22:08:14.586Z,85.77
2022-09-03T22:11:00.494Z,85.73
2022-09-03T22:13:38.632Z,85.92
2022-09-03T22:16:17.220Z,86.03
2022-09-03T22:18:47.239Z,86.05
2022-09-03T22:21:25.014Z,86.10
2022-09-03T22:24:14.741Z,86.10
2022-09-03T22:26:55.421Z,86.18
2022-09-03T22:29:40.366Z,86.33
2022-09-03T22:32:25.437Z,86.36
2022-09-03T22:35:18.288Z,86.38
2022-09-03T22:38:13.216Z,86.21
2022-09-03T22:40:52.255Z,86.23
2022-09-03T22:43:56.346Z,86.12
2022-09-03T22:46:36.098Z,86.33
2022-09-03T22:49:25.470Z,86.44
2022-09-03T22:52:24.329Z,86.49
2022-09-03T22:55:15.728Z,86.71
2022-09-03T22:58:00.575Z,86.89
2022-09-03T23:00:30.837Z,86.76
2022-09-03T23:03:09.767Z,86.67
2022-09-03T23:05:49.352Z,86.79
2022-09-03T23:08:26.397Z,86.68
2022-09-03T23:11:08.239Z,86.80
2022-09-03T23:13:44.016Z,86.74
2022-09-03T23:16:31.206Z,86.89
2022-09-03T23:19:13.431Z,86.91
2022-09-03T23:21:48.425Z,86.98
2022-09-03T23:24:27.474Z,86.97
2022-09-03T23:26:56.639Z,87.03
2022-09-03T23:29:33.338Z,87.15
2022-09-03T23:32:05.413Z,86.99
2022-09-03T23:34:36.629Z,87.04
2022-09-03T23:37:34.119Z,87.04
2022-09-03T23:40:25.884Z,86.91
2022-09-03T23:43:43.959Z,86.94
2022-09-03T23:46:20.848Z,86.95
2022-09-03T23:49:17.485Z,87.08
2022-09-03T23:52:07.834Z,87.15
2022-09-03T23:54:45.273Z,87.08
2022-09-03T23:57:25.745Z,87.05
